Aérodrome de la Montagne Noire

LFMG · Upper Garonne, Occitanie, 法国

2022年11月27日 10:002022年11月27日 19:00有效
时间
星期日
10:00
>40%
星期日
11:00
>40%
星期日
12:00
>40%
星期日
13:00
>40%
星期日
14:00
>40%
星期日
15:00
>40%
星期日
16:00
>40%
星期日
17:00
>40%
星期日
18:00
>40%
代码
VFR
VFR
VFR
VFR
VFR
VFR
VFR
VFR
VFR
天气
天空晴朗
天空晴朗
天空晴朗
天空晴朗
天空晴朗
天空晴朗
天空晴朗
天空晴朗
天空晴朗
能见度
10 km+
10 km+
10 km+
10 km+
10 km+
10 km+
10 km+
10 km+
10 km+
天花板
-
-
-
-
-
-
-
-
-
120°
120°
120°
120°
120°
120°
120°
120°
120°
120°
120°
120°
120°
120°
120°
120°
120°
120°
速度
20 kt
20 kt
20 kt
20 kt
20 kt
20 kt
20 kt
20 kt
20 kt
阵风
35 kt
35 kt
35 kt
35 kt
35 kt
35 kt
35 kt
35 kt
35 kt
温度/星期日
17:17

原版的

TAF LFCK 270800Z 2709/2718 11015G25KT CAVOK
TEMPO 2709/2718 12020G35KT

TAF Aérodrome de la Montagne Noire

Aérodrome de la Montagne Noire是,法国中的小机场。 该机场有3条跑道: 18/36, 3/21 和 12/30. 该领域的国际民航组织标志是LFMG.

这份报告是针对2022年11月27日 09:00, 当地时间在Castres-Mazamet Airport进行的。 从2022年11月27日 10:00到2022年11月27日 19:00, 当地时间有效.

预报

  • 在星期日 10:00和19:00之间

    • 风: 风来自110°方向,速度为15 kt。 预计25 kt阵风。
    • CAVOK: 天气为CAVOK。这意味着在5.000 ft或MSA(最低安全高度)以下(以较高者为准)以下没有云。这也意味着没有观测到积雨云或高耸的积云,可见度为10 km 或者更多或更高。此外,不会有雾,降雨或其他重要天气。

  • 暂时在星期日 10:00和19:00之间

    • 风: 风来自120°方向,速度为20 kt。 预计35 kt阵风。

白天

今天,太阳从08:00升起,在17:19降落。 这适用于Aérodrome de la Montagne Noire,世界夏令时可能有所不同。 当地时间与世界标准时间之间的时差为+1 小时。 当前,没有夏令时有效。

我们和第三方通过cookies跟踪您在我们网站上的互联网行为。如果你继续,我们认为你同意我们的饼干政策